createdAt,value
2022-11-29T00:00:47.390Z,1.90
2022-11-29T00:03:15.401Z,1.80
2022-11-29T00:05:42.231Z,1.80
2022-11-29T00:08:09.006Z,1.60
2022-11-29T00:10:39.141Z,1.70
2022-11-29T00:13:05.953Z,1.80
2022-11-29T00:15:37.026Z,1.90
2022-11-29T00:18:04.713Z,1.80
2022-11-29T00:20:32.190Z,1.80
2022-11-29T00:22:59.543Z,1.90
2022-11-29T00:25:27.068Z,1.90
2022-11-29T00:27:54.099Z,1.90
2022-11-29T00:30:21.114Z,1.80
2022-11-29T00:32:48.240Z,1.80
2022-11-29T00:35:15.201Z,1.80
2022-11-29T00:37:42.054Z,1.60
2022-11-29T00:40:09.299Z,1.70
2022-11-29T00:42:36.195Z,1.70
2022-11-29T00:45:03.173Z,1.60
2022-11-29T00:47:30.086Z,1.50
2022-11-29T00:49:56.961Z,1.50
2022-11-29T00:52:23.782Z,1.50
2022-11-29T00:54:50.563Z,1.50
2022-11-29T00:57:17.455Z,1.60
2022-11-29T00:59:44.218Z,1.50
2022-11-29T01:02:11.061Z,1.60
2022-11-29T01:04:38.119Z,1.50
2022-11-29T01:07:04.891Z,1.50
2022-11-29T01:09:31.727Z,1.60
2022-11-29T01:11:58.517Z,1.60
2022-11-29T01:14:25.367Z,1.60
2022-11-29T01:16:52.280Z,1.50
2022-11-29T01:19:19.115Z,1.60
2022-11-29T01:21:45.960Z,1.60
2022-11-29T01:24:12.784Z,1.60
2022-11-29T01:26:39.696Z,1.70
2022-11-29T01:29:06.512Z,1.70
2022-11-29T01:31:38.172Z,1.70
2022-11-29T01:34:06.774Z,1.70
2022-11-29T01:36:34.629Z,1.70
2022-11-29T01:39:03.134Z,1.70
2022-11-29T01:41:33.335Z,1.70
2022-11-29T01:44:12.327Z,1.70
2022-11-29T01:46:44.700Z,1.70
2022-11-29T01:49:30.441Z,1.70
2022-11-29T01:52:07.850Z,1.70
2022-11-29T01:54:39.785Z,1.80
2022-11-29T01:57:08.282Z,1.70
2022-11-29T01:59:39.006Z,1.80
2022-11-29T02:02:17.533Z,1.90
2022-11-29T02:04:47.132Z,1.90
2022-11-29T02:07:14.424Z,1.90
2022-11-29T02:09:41.370Z,1.80
2022-11-29T02:12:20.615Z,1.90
2022-11-29T02:14:53.498Z,1.90
2022-11-29T02:17:47.839Z,1.90
2022-11-29T02:20:41.267Z,1.90
2022-11-29T02:23:32.711Z,1.80
2022-11-29T02:26:18.889Z,1.80
2022-11-29T02:29:17.502Z,1.80
2022-11-29T02:32:03.225Z,1.80
2022-11-29T02:34:54.128Z,1.80
2022-11-29T02:37:41.875Z,1.80
2022-11-29T02:40:33.219Z,1.80
2022-11-29T02:43:13.997Z,1.90
2022-11-29T02:46:28.449Z,1.90
2022-11-29T02:49:39.878Z,1.80
2022-11-29T02:52:18.552Z,1.90
2022-11-29T02:54:59.412Z,2.00
2022-11-29T02:57:51.815Z,2.00
2022-11-29T03:00:21.028Z,1.90
2022-11-29T03:03:15.322Z,1.80
2022-11-29T03:06:09.319Z,1.90
2022-11-29T03:08:54.584Z,1.80
2022-11-29T03:11:29.990Z,1.70
2022-11-29T03:14:24.812Z,1.80
2022-11-29T03:17:00.783Z,1.90
2022-11-29T03:19:39.430Z,1.90
2022-11-29T03:22:37.586Z,1.90
2022-11-29T03:25:09.173Z,1.80
2022-11-29T03:27:44.480Z,1.70
2022-11-29T03:30:14.720Z,1.80
2022-11-29T03:33:09.842Z,1.70
2022-11-29T03:36:11.951Z,1.70
2022-11-29T03:38:47.156Z,1.70
2022-11-29T03:41:33.890Z,1.90
2022-11-29T03:44:08.746Z,1.90
2022-11-29T03:46:42.869Z,1.90
2022-11-29T03:49:18.510Z,1.70
2022-11-29T03:51:57.266Z,1.80
2022-11-29T03:54:46.967Z,1.80
2022-11-29T03:57:19.953Z,1.90
2022-11-29T04:00:08.349Z,2.00
2022-11-29T04:03:01.050Z,2.00
2022-11-29T04:05:37.677Z,2.00
2022-11-29T04:08:41.985Z,2.00
2022-11-29T04:11:20.728Z,2.00
2022-11-29T04:13:50.330Z,1.90
2022-11-29T04:16:22.944Z,2.00
2022-11-29T04:19:43.181Z,2.00
2022-11-29T04:22:55.237Z,2.00
2022-11-29T04:25:33.837Z,1.90
2022-11-29T04:28:23.531Z,1.90
2022-11-29T04:31:12.167Z,1.60
2022-11-29T04:34:12.859Z,1.50
2022-11-29T04:36:58.227Z,1.50
2022-11-29T04:39:43.077Z,1.40
2022-11-29T04:42:20.423Z,1.50
2022-11-29T04:44:58.525Z,1.50
2022-11-29T04:47:31.329Z,1.50
2022-11-29T04:50:01.071Z,1.60
2022-11-29T04:52:48.274Z,1.60
2022-11-29T04:55:57.078Z,1.60
2022-11-29T04:58:26.932Z,1.60
2022-11-29T05:01:23.186Z,1.60
2022-11-29T05:03:55.427Z,1.60
2022-11-29T05:06:58.381Z,1.50
2022-11-29T05:09:37.705Z,1.50
2022-11-29T05:12:42.678Z,1.50
2022-11-29T05:15:24.513Z,1.50
2022-11-29T05:18:15.587Z,1.60
2022-11-29T05:21:06.510Z,1.70
2022-11-29T05:23:51.990Z,1.70
2022-11-29T05:26:38.368Z,1.70
2022-11-29T05:29:11.703Z,1.70
2022-11-29T05:31:57.042Z,1.60
2022-11-29T05:34:35.100Z,1.60
2022-11-29T05:37:27.269Z,1.50
2022-11-29T05:40:15.437Z,1.50
2022-11-29T05:43:22.664Z,1.50
2022-11-29T05:46:01.125Z,1.60
2022-11-29T05:48:49.179Z,1.60
2022-11-29T05:51:38.499Z,1.50
2022-11-29T05:54:11.292Z,1.50
2022-11-29T05:56:58.831Z,1.60
2022-11-29T05:59:29.316Z,1.60
2022-11-29T06:02:11.220Z,1.60
2022-11-29T06:04:58.156Z,1.60
2022-11-29T06:07:48.413Z,1.60
2022-11-29T06:10:23.141Z,1.60
2022-11-29T06:13:23.367Z,1.70
2022-11-29T06:16:06.988Z,1.80
2022-11-29T06:18:40.562Z,1.80
2022-11-29T06:21:30.050Z,1.80
2022-11-29T06:24:15.833Z,1.80
2022-11-29T06:27:04.156Z,1.70
2022-11-29T06:29:57.947Z,1.70
2022-11-29T06:32:40.310Z,1.70
2022-11-29T06:35:27.787Z,1.60
2022-11-29T06:37:58.453Z,1.60
2022-11-29T06:40:25.692Z,1.60
2022-11-29T06:42:52.491Z,1.60
2022-11-29T06:45:19.937Z,1.70
2022-11-29T06:47:57.514Z,1.80
2022-11-29T06:50:37.417Z,1.80
2022-11-29T06:53:25.036Z,1.70
2022-11-29T06:56:26.476Z,1.70
2022-11-29T06:59:06.642Z,1.80
2022-11-29T07:02:00.897Z,1.80
2022-11-29T07:04:40.008Z,1.70
2022-11-29T07:07:17.999Z,1.70
2022-11-29T07:09:47.335Z,1.60
2022-11-29T07:12:14.994Z,1.60
2022-11-29T07:14:42.306Z,1.70
2022-11-29T07:17:35.616Z,1.80
2022-11-29T07:20:08.715Z,2.00
2022-11-29T07:23:14.214Z,1.90
2022-11-29T07:26:37.910Z,1.90
2022-11-29T07:29:32.315Z,2.00
2022-11-29T07:31:59.035Z,2.00
2022-11-29T07:34:49.719Z,2.00
2022-11-29T07:37:28.409Z,2.00
2022-11-29T07:40:14.746Z,1.90
2022-11-29T07:42:55.730Z,1.90
2022-11-29T07:45:32.590Z,1.90
2022-11-29T07:47:59.930Z,1.90
2022-11-29T07:50:27.669Z,1.90
2022-11-29T07:52:55.711Z,2.00
2022-11-29T07:55:24.736Z,2.00
2022-11-29T07:57:52.377Z,2.00
2022-11-29T08:00:20.496Z,2.00
2022-11-29T08:02:48.603Z,2.10
2022-11-29T08:05:15.678Z,2.10
2022-11-29T08:07:42.707Z,2.10
2022-11-29T08:10:12.569Z,2.10
2022-11-29T08:12:48.336Z,2.10
2022-11-29T08:15:15.453Z,2.10
2022-11-29T08:17:42.330Z,2.10
2022-11-29T08:20:10.851Z,2.10
2022-11-29T08:22:38.152Z,2.10
2022-11-29T08:25:06.623Z,2.10
2022-11-29T08:27:34.380Z,2.10
2022-11-29T08:30:01.138Z,2.00
2022-11-29T08:32:28.309Z,2.00
2022-11-29T08:34:55.082Z,2.10
2022-11-29T08:37:21.838Z,2.10
2022-11-29T08:39:48.717Z,2.10
2022-11-29T08:42:15.509Z,2.10
2022-11-29T08:44:42.384Z,2.10
2022-11-29T08:47:29.554Z,2.20
2022-11-29T08:50:02.106Z,2.20
2022-11-29T08:52:53.032Z,2.20
2022-11-29T08:55:21.270Z,2.20
2022-11-29T08:57:49.247Z,2.30
2022-11-29T09:00:17.813Z,2.40
2022-11-29T09:02:44.593Z,2.40
2022-11-29T09:05:11.935Z,2.50
2022-11-29T09:07:39.316Z,2.40
2022-11-29T09:10:08.433Z,2.40
2022-11-29T09:12:36.659Z,2.30
2022-11-29T09:15:09.365Z,2.30
2022-11-29T09:17:36.351Z,2.30
2022-11-29T09:20:04.328Z,2.30
2022-11-29T09:22:31.528Z,2.30
2022-11-29T09:24:58.389Z,2.30
2022-11-29T09:27:25.150Z,2.30
2022-11-29T09:29:51.891Z,2.40
2022-11-29T09:32:18.658Z,2.40
2022-11-29T09:34:45.677Z,2.30
2022-11-29T09:37:12.777Z,2.40
2022-11-29T09:39:41.529Z,2.40
2022-11-29T09:42:54.547Z,2.40
2022-11-29T09:45:28.681Z,2.30
2022-11-29T09:48:06.882Z,2.30
2022-11-29T09:50:36.696Z,2.30
2022-11-29T09:53:29.598Z,2.30
2022-11-29T09:56:21.150Z,2.30
2022-11-29T09:59:00.598Z,2.40
2022-11-29T10:01:32.540Z,2.50
2022-11-29T10:04:04.679Z,2.50
2022-11-29T10:06:43.278Z,2.40
2022-11-29T10:09:34.324Z,2.50
2022-11-29T10:12:39.441Z,2.40
2022-11-29T10:15:17.952Z,2.50
2022-11-29T10:17:59.068Z,2.40
2022-11-29T10:20:42.491Z,2.30
2022-11-29T10:23:24.116Z,2.50
2022-11-29T10:25:53.382Z,2.50
2022-11-29T10:28:25.919Z,2.50
2022-11-29T10:30:57.516Z,2.60
2022-11-29T10:33:29.812Z,2.50
2022-11-29T10:35:59.302Z,2.50
2022-11-29T10:38:31.274Z,2.50
2022-11-29T10:41:07.939Z,2.60
2022-11-29T10:43:37.373Z,2.60
2022-11-29T10:46:05.987Z,2.50
2022-11-29T10:48:34.140Z,2.50
2022-11-29T10:51:02.428Z,2.50
2022-11-29T10:53:36.659Z,2.40
2022-11-29T10:56:09.982Z,2.40
2022-11-29T10:58:37.275Z,2.30
2022-11-29T11:01:08.966Z,2.30
2022-11-29T11:03:35.803Z,2.30
2022-11-29T11:06:14.006Z,2.40
2022-11-29T11:08:49.899Z,2.40
2022-11-29T11:11:28.743Z,2.50
2022-11-29T11:14:00.739Z,2.40
2022-11-29T11:16:29.706Z,2.40
2022-11-29T11:19:30.157Z,2.50
2022-11-29T11:21:59.164Z,2.40
2022-11-29T11:24:33.101Z,2.50
2022-11-29T11:27:01.357Z,2.50
2022-11-29T11:29:46.336Z,2.60
2022-11-29T11:32:18.915Z,2.60
2022-11-29T11:34:58.999Z,2.70
2022-11-29T11:37:31.655Z,2.70
2022-11-29T11:40:00.946Z,2.80
2022-11-29T11:42:40.475Z,2.90
2022-11-29T11:45:13.431Z,2.90
2022-11-29T11:47:45.891Z,3.00
2022-11-29T11:50:16.665Z,2.90
2022-11-29T11:52:53.434Z,2.80
2022-11-29T11:55:43.436Z,2.80
2022-11-29T11:58:16.345Z,2.70
2022-11-29T12:01:03.369Z,2.80
2022-11-29T12:03:31.411Z,2.80
2022-11-29T12:06:20.485Z,2.70
2022-11-29T12:08:49.420Z,2.70
2022-11-29T12:11:18.742Z,2.50
2022-11-29T12:13:52.623Z,2.40
2022-11-29T12:16:31.501Z,2.40
2022-11-29T12:19:12.167Z,2.40
2022-11-29T12:21:43.586Z,2.30
2022-11-29T12:24:45.808Z,2.30
2022-11-29T12:27:15.556Z,2.30
2022-11-29T12:29:42.558Z,2.30
2022-11-29T12:32:47.600Z,2.30
2022-11-29T12:35:52.449Z,2.30
2022-11-29T12:39:02.830Z,2.20
2022-11-29T12:41:40.409Z,2.30
2022-11-29T12:44:28.782Z,2.40
2022-11-29T12:47:37.338Z,2.40
2022-11-29T12:50:27.608Z,2.40
2022-11-29T12:52:57.258Z,2.40
2022-11-29T12:55:50.808Z,2.40
2022-11-29T12:58:24.514Z,2.40
2022-11-29T13:01:03.319Z,2.40
2022-11-29T13:03:52.154Z,2.40
2022-11-29T13:06:31.189Z,2.30
2022-11-29T13:09:11.259Z,2.30
2022-11-29T13:11:44.171Z,2.30
2022-11-29T13:17:45.117Z,2.40
2022-11-29T13:20:22.107Z,2.30
2022-11-29T13:22:54.387Z,2.30
2022-11-29T13:25:26.833Z,2.40
2022-11-29T13:28:28.098Z,2.50
2022-11-29T13:31:00.373Z,2.50
2022-11-29T13:33:45.986Z,2.50
2022-11-29T13:36:43.602Z,2.40
2022-11-29T13:39:22.348Z,2.40
2022-11-29T13:41:55.127Z,2.40
2022-11-29T13:44:34.881Z,2.40
2022-11-29T13:47:13.489Z,2.40
2022-11-29T13:49:58.638Z,2.40
2022-11-29T13:52:34.842Z,2.40
2022-11-29T13:55:31.605Z,2.40
2022-11-29T13:58:30.850Z,2.50
2022-11-29T14:01:10.485Z,2.60
2022-11-29T14:03:45.353Z,2.60
2022-11-29T14:06:17.948Z,2.70
2022-11-29T14:11:48.710Z,2.70
2022-11-29T14:14:27.552Z,2.60
2022-11-29T14:17:00.258Z,2.50
2022-11-29T14:19:37.369Z,2.50
2022-11-29T14:22:06.777Z,2.50
2022-11-29T14:24:36.376Z,2.50
2022-11-29T14:27:06.272Z,2.70
2022-11-29T14:29:56.389Z,2.60
2022-11-29T14:32:24.525Z,2.50
2022-11-29T14:34:58.788Z,2.50
2022-11-29T14:37:53.149Z,2.50
2022-11-29T14:40:19.870Z,2.40
2022-11-29T14:42:48.640Z,2.40
2022-11-29T14:45:30.566Z,2.40
2022-11-29T14:47:57.501Z,2.40
2022-11-29T14:50:40.231Z,2.40
2022-11-29T14:53:27.565Z,2.40
2022-11-29T14:56:35.266Z,2.40
2022-11-29T14:59:45.018Z,2.40
2022-11-29T15:02:26.907Z,2.40
2022-11-29T15:04:55.554Z,2.40
2022-11-29T15:07:33.247Z,2.40
2022-11-29T15:10:03.940Z,2.40
2022-11-29T15:12:36.293Z,2.50
2022-11-29T15:15:58.002Z,2.50
2022-11-29T15:18:57.960Z,2.40
2022-11-29T15:21:39.787Z,2.50
2022-11-29T15:24:13.146Z,2.50
2022-11-29T15:27:04.027Z,2.40
2022-11-29T15:29:31.493Z,2.40
2022-11-29T15:32:01.840Z,2.30
2022-11-29T15:34:31.445Z,2.30
2022-11-29T15:36:59.419Z,2.40
2022-11-29T15:39:27.850Z,2.40
2022-11-29T15:42:04.762Z,2.50
2022-11-29T15:44:32.829Z,2.50
2022-11-29T15:47:32.109Z,2.50
2022-11-29T15:49:58.972Z,2.40
2022-11-29T15:52:33.949Z,2.30
2022-11-29T15:55:10.379Z,2.30
2022-11-29T15:57:47.522Z,2.30
2022-11-29T16:00:20.470Z,2.30
2022-11-29T16:03:00.224Z,2.30
2022-11-29T16:05:29.194Z,2.30
2022-11-29T16:08:04.544Z,2.30
2022-11-29T16:10:35.489Z,2.30
2022-11-29T16:13:28.206Z,2.10
2022-11-29T16:16:19.492Z,2.10
2022-11-29T16:18:48.108Z,2.10
2022-11-29T16:21:30.210Z,2.20
2022-11-29T16:23:58.360Z,2.20
2022-11-29T16:26:36.129Z,2.20
2022-11-29T16:29:03.574Z,2.20
2022-11-29T16:31:35.127Z,2.20
2022-11-29T16:34:15.428Z,2.20
2022-11-29T16:36:42.275Z,2.20
2022-11-29T16:39:23.613Z,2.10
2022-11-29T16:42:07.822Z,2.10
2022-11-29T16:44:38.599Z,2.00
2022-11-29T16:47:16.166Z,2.10
2022-11-29T16:49:42.936Z,2.10
2022-11-29T16:52:31.554Z,2.10
2022-11-29T16:54:58.420Z,2.20
2022-11-29T16:57:52.364Z,2.20
2022-11-29T17:00:24.549Z,2.10
2022-11-29T17:02:51.391Z,2.00
2022-11-29T17:05:18.179Z,2.00
2022-11-29T17:07:45.452Z,1.90
2022-11-29T17:10:16.414Z,1.90
2022-11-29T17:12:47.857Z,1.80
2022-11-29T17:15:15.382Z,1.80
2022-11-29T17:17:43.552Z,1.90
2022-11-29T17:20:12.779Z,1.90
2022-11-29T17:22:40.285Z,1.90
2022-11-29T17:25:07.406Z,1.90
2022-11-29T17:27:34.275Z,1.90
2022-11-29T17:30:01.024Z,2.10
2022-11-29T17:32:27.869Z,2.20
2022-11-29T17:34:54.724Z,2.20
2022-11-29T17:37:21.563Z,2.20
2022-11-29T17:39:49.224Z,2.20
2022-11-29T17:42:16.167Z,2.20
2022-11-29T17:44:42.967Z,2.30
2022-11-29T17:47:09.756Z,2.30
2022-11-29T17:49:36.519Z,2.20
2022-11-29T17:52:03.531Z,2.20
2022-11-29T17:54:33.060Z,2.30
2022-11-29T17:57:00.974Z,2.30
2022-11-29T17:59:27.789Z,2.30
2022-11-29T18:01:54.650Z,2.30
2022-11-29T18:04:21.994Z,2.30
2022-11-29T18:06:51.541Z,2.40
2022-11-29T18:09:19.575Z,2.30
2022-11-29T18:11:49.335Z,2.30
2022-11-29T18:14:20.439Z,2.30
2022-11-29T18:16:47.457Z,2.30
2022-11-29T18:19:17.154Z,2.30
2022-11-29T18:21:44.563Z,2.20
2022-11-29T18:24:11.778Z,2.30
2022-11-29T18:26:39.277Z,2.20
2022-11-29T18:29:07.135Z,2.20
2022-11-29T18:31:36.262Z,2.30
2022-11-29T18:34:09.777Z,2.30
2022-11-29T18:36:42.912Z,2.30
2022-11-29T18:39:14.180Z,2.40
2022-11-29T18:41:43.693Z,2.30
2022-11-29T18:44:13.182Z,2.30
2022-11-29T18:46:43.065Z,2.20
2022-11-29T18:49:12.108Z,2.20
2022-11-29T18:51:39.909Z,2.10
2022-11-29T18:54:07.082Z,2.00
2022-11-29T18:56:35.612Z,2.10
2022-11-29T18:59:04.936Z,2.20
2022-11-29T19:01:34.724Z,2.20
2022-11-29T19:04:02.024Z,2.20
2022-11-29T19:06:39.035Z,2.20
2022-11-29T19:09:07.835Z,2.30
2022-11-29T19:11:35.000Z,2.20
2022-11-29T19:14:11.281Z,2.10
2022-11-29T19:16:40.686Z,2.10
2022-11-29T19:19:07.608Z,2.10
2022-11-29T19:21:34.875Z,2.10
2022-11-29T19:24:07.703Z,2.20
2022-11-29T19:26:35.009Z,2.20
2022-11-29T19:29:02.047Z,2.20
2022-11-29T19:31:29.706Z,2.20
2022-11-29T19:33:57.604Z,2.20
2022-11-29T19:36:31.786Z,2.10
2022-11-29T19:39:01.599Z,2.20
2022-11-29T19:41:33.969Z,2.20
2022-11-29T19:44:03.619Z,2.20
2022-11-29T19:46:38.697Z,2.20
2022-11-29T19:49:06.971Z,2.30
2022-11-29T19:51:34.704Z,2.20
2022-11-29T19:54:04.533Z,2.20
2022-11-29T19:56:32.415Z,2.30
2022-11-29T19:59:02.135Z,2.30
2022-11-29T20:01:37.771Z,2.20
2022-11-29T20:04:07.596Z,2.20
2022-11-29T20:06:34.561Z,2.10
2022-11-29T20:09:01.932Z,2.10
2022-11-29T20:11:28.750Z,2.10
2022-11-29T20:14:03.012Z,2.10
2022-11-29T20:16:31.380Z,2.20
2022-11-29T20:18:59.473Z,2.30
2022-11-29T20:21:31.976Z,2.10
2022-11-29T20:24:12.612Z,2.10
2022-11-29T20:26:42.432Z,2.20
2022-11-29T20:29:09.774Z,2.30
2022-11-29T20:31:45.987Z,2.30
2022-11-29T20:34:16.366Z,2.30
2022-11-29T20:36:54.947Z,2.20
2022-11-29T20:39:40.021Z,2.20
2022-11-29T20:42:19.143Z,2.10
2022-11-29T20:44:51.426Z,2.20
2022-11-29T20:47:26.056Z,2.30
2022-11-29T20:49:53.451Z,2.20
2022-11-29T20:52:35.771Z,2.20
2022-11-29T20:55:03.054Z,2.20
2022-11-29T20:57:31.388Z,2.30
2022-11-29T20:59:58.202Z,2.30
2022-11-29T21:02:25.508Z,2.30
2022-11-29T21:04:52.447Z,2.30
2022-11-29T21:07:19.400Z,2.30
2022-11-29T21:09:46.614Z,2.20
2022-11-29T21:12:13.963Z,2.20
2022-11-29T21:14:41.257Z,2.20
2022-11-29T21:17:09.249Z,2.20
2022-11-29T21:19:36.365Z,2.20
2022-11-29T21:22:17.838Z,2.20
2022-11-29T21:25:03.354Z,2.20
2022-11-29T21:27:33.333Z,2.10
2022-11-29T21:30:03.335Z,2.10
2022-11-29T21:32:30.368Z,2.10
2022-11-29T21:34:57.143Z,2.10
2022-11-29T21:37:27.710Z,2.20
2022-11-29T21:39:55.757Z,2.20
2022-11-29T21:42:22.795Z,2.20
2022-11-29T21:44:49.678Z,2.20
2022-11-29T21:47:16.535Z,2.20
2022-11-29T21:49:43.293Z,2.20
2022-11-29T21:52:10.206Z,2.20
2022-11-29T21:54:37.023Z,2.10
2022-11-29T21:57:03.918Z,2.10
2022-11-29T21:59:30.731Z,2.10
2022-11-29T22:01:57.688Z,2.10
2022-11-29T22:04:25.267Z,2.10
2022-11-29T22:06:52.159Z,2.10
2022-11-29T22:09:18.982Z,2.00
2022-11-29T22:11:45.979Z,2.00
2022-11-29T22:14:15.164Z,2.00
2022-11-29T22:16:49.237Z,2.00
2022-11-29T22:19:18.454Z,2.00
2022-11-29T22:21:48.088Z,2.00
2022-11-29T22:24:17.105Z,2.00
2022-11-29T22:26:43.946Z,2.00
2022-11-29T22:29:14.024Z,2.00
2022-11-29T22:31:41.946Z,2.10
2022-11-29T22:34:09.228Z,2.10
2022-11-29T22:36:37.035Z,2.10
2022-11-29T22:39:04.744Z,2.10
2022-11-29T22:41:32.871Z,2.10
2022-11-29T22:43:59.980Z,2.10
2022-11-29T22:46:27.664Z,2.20
2022-11-29T22:48:57.268Z,2.20
2022-11-29T22:51:32.947Z,2.20
2022-11-29T22:54:01.973Z,2.20
2022-11-29T22:56:31.233Z,2.20
2022-11-29T22:58:58.596Z,2.10
2022-11-29T23:01:27.935Z,2.10
2022-11-29T23:03:57.127Z,2.10
2022-11-29T23:06:25.069Z,2.20
2022-11-29T23:08:54.032Z,2.20
2022-11-29T23:11:23.419Z,2.20
2022-11-29T23:13:50.599Z,2.30
2022-11-29T23:16:20.093Z,2.40
2022-11-29T23:18:47.665Z,2.40
2022-11-29T23:21:28.512Z,2.30
2022-11-29T23:23:56.818Z,2.30
2022-11-29T23:26:28.412Z,2.30
2022-11-29T23:28:55.924Z,2.20
2022-11-29T23:31:23.922Z,2.20
2022-11-29T23:33:50.838Z,2.20
2022-11-29T23:36:18.958Z,2.20
2022-11-29T23:38:45.751Z,2.10
2022-11-29T23:41:12.990Z,2.10
2022-11-29T23:43:41.279Z,2.10
2022-11-29T23:46:12.221Z,2.20
2022-11-29T23:48:39.086Z,2.20
2022-11-29T23:51:06.293Z,2.20
2022-11-29T23:53:33.485Z,2.20
2022-11-29T23:56:06.549Z,2.20
2022-11-29T23:58:34.121Z,2.30
